Latest Weather Observations for Redcliffe

IDQ60901

Issued at 5:21 am EST Saturday 10 December 2016 (issued every 10 minutes, with the page automatically refreshed every 10 minutes)

About weather observations | Map of Brisbane area stations | Latest observations for Brisbane area | Other Formats
Station Details ID: 040958 Name: REDCLIFFE Lat: -27.22 Lon: 153.09 Height: 12.6 m
Data from the previous 72 hours. | See also: Recent months at Redcliffe
Date/Time
EST
Temp
°C
App
Temp
°C
Dew
Point
°C
Rel
Hum
%
Delta-T
°C
Wind Press
QNH
hPa
Press
MSL
hPa
Rain since
9am
mm
Dir  Spd
km/h
Gust
km/h
Spd
kts
Gust
kts
10/05:00am 23.2 17.8 16.0 64 4.4 SE 39 46 21 25 1017.0 1016.9 0.8
10/04:30am 23.3 18.3 16.1 64 4.4 SE 37 44 20 24 1016.7 1016.6 0.8
10/04:00am 23.4 17.6 16.0 63 4.5 SE 41 50 22 27 1016.2 1016.1 0.8
10/03:30am 23.3 17.9 16.1 64 4.4 SE 39 50 21 27 1015.8 1015.7 0.8
10/03:00am 23.4 19.0 16.7 66 4.1 SE 35 43 19 23 1015.6 1015.5 0.8
10/02:30am 23.6 19.5 17.3 67 3.9 SE 35 44 19 24 1015.2 1015.1 0.8
10/02:00am 23.6 19.5 18.3 72 3.3 SE 37 43 20 23 1014.9 1014.8 0.8
10/01:30am 23.7 20.0 19.2 76 2.9 SE 37 41 20 22 1014.6 1014.5 0.8
10/01:00am 23.8 20.2 19.3 76 2.9 ESE 37 44 20 24 1014.5 1014.4 0.8
10/12:30am 23.8 20.3 19.5 77 2.8 ESE 37 48 20 26 1014.5 1014.4 0.8
10/12:00am 23.9 20.3 20.2 80 2.4 SE 39 48 21 26 1014.4 1014.3 0.8
 
Date/Time
EST
Temp
°C
App
Temp
°C
Dew
Point
°C
Rel
Hum
%
Delta-T
°C
Wind Press
QNH
hPa
Press
MSL
hPa
Rain since
9am
mm
Dir  Spd
km/h
Gust
km/h
Spd
kts
Gust
kts
09/11:30pm 23.7 20.1 20.2 81 2.3 SSE 39 44 21 24 1014.5 1014.4 0.8
09/11:00pm 23.3 20.4 20.1 82 2.1 SSE 35 43 19 23 1014.5 1014.4 0.8
09/10:30pm 23.4 21.7 19.8 80 2.3 SSE 28 33 15 18 1014.3 1014.2 0.8
09/10:00pm 23.2 25.1 19.8 81 2.2 WSW 9 17 5 9 1014.1 1014.0 0.8
09/09:30pm 23.9 25.5 20.0 79 2.5 NNW 11 13 6 7 1013.5 1013.4 0.8
09/09:00pm 24.5 25.5 20.2 77 2.8 N 15 19 8 10 1013.3 1013.2 0.8
09/08:30pm 25.0 26.4 19.6 72 3.5 NNE 11 17 6 9 1013.0 1012.9 0.8
09/08:00pm 25.1 27.0 19.7 72 3.5 NNW 9 13 5 7 1012.6 1012.5 0.8
09/07:30pm 24.7 26.2 19.8 74 3.2 NNW 11 13 6 7 1012.4 1012.3 0.8
09/07:00pm 25.2 25.8 17.7 63 4.7 NNE 11 13 6 7 1012.2 1012.1 0.8
09/06:30pm 26.4 27.6 16.9 56 5.9 NW 6 7 3 4 1011.7 1011.6 0.8
09/06:00pm 27.7 28.9 16.9 51 6.7 WNW 6 9 3 5 1011.5 1011.4 0.6
09/05:30pm 27.3 28.8 18.9 60 5.4 W 9 15 5 8 1010.9 1010.8 0.6
09/05:00pm 26.9 27.6 17.9 57 5.7 W 11 15 6 8 1010.4 1010.3 0.6
09/04:30pm 27.7 29.6 19.0 59 5.6 WSW 7 11 4 6 1010.0 1009.9 0.6
09/04:00pm 27.0 28.4 19.6 64 4.8 WSW 11 17 6 9 1009.9 1009.8 0.6
09/03:30pm 27.1 29.2 20.2 66 4.5 WNW 9 15 5 8 1009.6 1009.5 0.6
09/03:00pm 26.1 28.2 20.2 70 3.9 NW 9 11 5 6 1009.6 1009.5 0.6
09/02:30pm 25.8 27.6 20.4 72 3.5 NNW 11 15 6 8 1009.8 1009.7 0.6
09/02:00pm 25.6 27.8 20.4 73 3.4 N 9 11 5 6 1009.9 1009.8 0.6
09/01:30pm 24.9 28.7 20.2 75 3.1 CALM 0 0 0 0 1009.8 1009.7 0.6
09/01:00pm 24.8 26.9 20.1 75 3.1 N 9 11 5 6 1009.9 1009.8 0.4
09/12:30pm 25.2 28.9 20.0 73 3.4 CALM 0 7 0 4 1010.2 1010.1 0.2
09/12:00pm 24.5 26.3 19.6 74 3.2 W 9 13 5 7 1010.0 1009.9 0.2
09/11:30am 25.4 25.2 18.6 66 4.3 W 17 22 9 12 1010.0 1009.9 0.0
09/11:00am 25.9 27.0 18.8 65 4.5 W 11 15 6 8 1010.0 1009.9 0.0
09/10:30am 26.4 26.2 18.5 62 5.0 W 17 28 9 15 1010.0 1009.9 0.0
09/10:00am 26.1 25.5 18.5 63 4.8 WNW 19 28 10 15 1009.9 1009.8 0.0
09/09:30am 26.5 25.7 18.1 60 5.3 WNW 19 33 10 18 1009.5 1009.4 0.0
09/09:00am 26.8 25.7 18.6 60 5.2 WNW 22 33 12 18 1009.1 1009.0 9.6
09/08:30am 26.1 26.4 19.7 68 4.1 WNW 17 26 9 14 1009.3 1009.2 9.6
09/08:00am 25.7 27.2 20.5 73 3.4 NW 13 24 7 13 1009.5 1009.4 9.6
09/07:30am 25.2 26.8 20.0 73 3.4 NNW 11 15 6 8 1009.4 1009.3 9.6
09/07:00am 25.2 26.3 19.6 71 3.6 WNW 13 19 7 10 1009.8 1009.7 9.6
09/06:30am 25.0 25.7 19.6 72 3.5 NW 15 22 8 12 1009.9 1009.8 9.6
09/06:00am 25.9 24.6 19.1 66 4.4 WNW 24 37 13 20 1009.3 1009.2 9.6
09/05:30am 24.9 26.6 20.2 75 3.1 NW 11 15 6 8 1008.9 1008.8 9.6
09/05:00am 24.5 25.8 20.2 77 2.8 WNW 13 17 7 9 1008.5 1008.4 9.6
09/04:30am 24.4 25.8 20.3 78 2.7 WNW 13 17 7 9 1008.2 1008.1 9.6
09/04:00am 24.3 26.1 20.4 79 2.5 WNW 11 17 6 9 1008.4 1008.3 9.6
09/03:30am 24.4 25.9 20.5 79 2.5 WNW 13 17 7 9 1008.4 1008.3 9.6
09/03:00am 24.4 25.9 20.5 79 2.5 NW 13 17 7 9 1008.5 1008.4 9.6
09/02:30am 24.3 26.7 20.8 81 2.3 NNW 9 11 5 6 1008.6 1008.5 9.6
09/02:00am 24.1 26.6 21.8 87 1.5 NNW 11 15 6 8 1008.6 1008.5 9.6
09/01:30am 23.0 25.2 20.3 85 1.7 WNW 9 11 5 6 1008.5 1008.4 9.6
09/01:00am 23.2 24.5 20.2 83 1.9 WNW 13 28 7 15 1009.3 1009.2 4.2
09/12:30am 23.9 25.6 21.0 84 1.9 WNW 13 19 7 10 1009.2 1009.1 1.0
09/12:00am 23.9 24.9 21.0 84 1.9 NNW 17 24 9 13 1008.5 1008.4 1.0
 
Date/Time
EST
Temp
°C
App
Temp
°C
Dew
Point
°C
Rel
Hum
%
Delta-T
°C
Wind Press
QNH
hPa
Press
MSL
hPa
Rain since
9am
mm
Dir  Spd
km/h
Gust
km/h
Spd
kts
Gust
kts
08/11:30pm 23.8 24.4 21.1 85 1.8 NNW 19 24 10 13 1008.9 1008.8 1.0
08/11:00pm 24.0 23.5 20.7 82 2.2 NNW 24 30 13 16 1009.7 1009.6 0.8
08/10:30pm 24.4 24.8 20.7 80 2.4 N 19 24 10 13 1009.4 1009.3 0.8
08/10:00pm 24.1 26.0 21.4 85 1.8 NNW 13 19 7 10 1009.3 1009.2 0.6
08/09:30pm 24.1 26.1 21.6 86 1.7 NW 13 15 7 8 1009.2 1009.1 0.6
08/09:00pm 24.1 26.0 21.4 85 1.8 NW 13 17 7 9 1009.2 1009.1 0.6
08/08:30pm 24.4 26.2 21.1 82 2.2 NW 13 20 7 11 1009.2 1009.1 0.2
08/08:00pm 25.2 24.6 21.3 79 2.6 N 26 32 14 17 1009.0 1008.9 0.2
08/07:30pm 25.2 24.5 21.1 78 2.7 NNE 26 33 14 18 1008.3 1008.2 0.2
08/07:00pm 25.6 26.7 20.4 73 3.4 N 15 20 8 11 1009.5 1009.4 0.0
08/06:30pm 25.9 27.2 20.2 71 3.7 NNE 13 15 7 8 1009.0 1008.9 0.0
08/06:00pm 25.8 27.1 20.1 71 3.7 NW 13 24 7 13 1009.0 1008.9 0.0
08/05:56pm 25.7 26.7 20.3 72 3.5 NNW 15 24 8 13 1008.9 1008.8 0.0
08/05:30pm 25.9 23.3 20.0 70 3.8 N 33 39 18 21 1006.9 1006.8 0.0
08/05:00pm 26.1 23.9 20.7 72 3.6 N 33 39 18 21 1006.9 1006.8 0.0
08/04:30pm 26.2 23.1 20.5 71 3.7 NNE 37 46 20 25 1006.6 1006.5 0.0
08/04:00pm 26.1 23.7 20.4 71 3.7 NNE 33 37 18 20 1006.9 1006.8 0.0
08/03:30pm 25.8 23.6 20.4 72 3.5 NNE 32 37 17 20 1007.5 1007.4 0.0
08/03:00pm 26.1 23.7 20.4 71 3.7 NNE 33 37 18 20 1007.7 1007.6 0.0
08/02:30pm 26.2 24.0 20.8 72 3.6 NNE 33 37 18 20 1008.0 1007.9 0.0
08/02:00pm 26.2 24.5 20.5 71 3.7 NNE 30 32 16 17 1009.2 1009.1 0.0
08/01:30pm 27.2 25.8 20.5 67 4.4 NE 28 32 15 17 1009.9 1009.8 0.0
08/01:00pm 27.9 27.4 21.4 67 4.3 NE 26 30 14 16 1010.1 1010.0 0.0
08/12:30pm 27.8 28.4 21.3 67 4.3 NNE 20 24 11 13 1010.8 1010.7 0.0
08/12:00pm 27.4 28.5 21.9 72 3.7 NNE 19 22 10 12 1011.1 1011.0 0.0
08/11:30am 26.5 27.8 20.8 71 3.8 NNE 15 19 8 10 1011.5 1011.4 0.0
08/11:00am 27.4 29.7 21.4 70 4.0 SE 11 13 6 7 1011.7 1011.6 0.0
08/10:30am 26.9 29.9 21.9 74 3.3 NE 9 13 5 7 1012.0 1011.9 0.0
08/10:00am 26.5 28.4 21.3 73 3.5 NNE 13 15 7 8 1012.2 1012.1 0.0
08/09:30am 25.6 28.0 21.5 78 2.7 NNE 11 13 6 7 1012.2 1012.1 0.0
08/09:00am 24.9 27.9 21.2 80 2.4 E 7 9 4 5 1012.6 1012.5 0.4
08/08:30am 24.4 26.9 21.7 85 1.8 ESE 11 13 6 7 1012.7 1012.6 0.4
08/08:00am 23.9 26.1 21.2 85 1.8 E 11 15 6 8 1012.7 1012.6 0.4
08/07:30am 23.9 24.8 20.8 83 2.0 E 17 19 9 10 1012.2 1012.1 0.4
08/07:00am 24.1 24.7 21.0 83 2.0 E 19 22 10 12 1012.4 1012.3 0.4
08/06:30am 24.1 25.1 21.0 83 2.0 ESE 17 20 9 11 1012.2 1012.1 0.4
08/06:00am 24.0 24.6 21.1 84 1.9 ESE 19 24 10 13 1012.2 1012.1 0.4
08/05:30am 23.8 24.3 21.1 85 1.8 ESE 20 26 11 14 1012.1 1012.0 0.4
08/05:00am 23.6 23.6 20.9 85 1.8 SE 22 26 12 14 1012.0 1011.9 0.4
08/04:30am 23.7 24.4 21.2 86 1.6 SE 19 22 10 12 1012.1 1012.0 0.4
08/04:00am 23.5 24.2 21.2 87 1.5 SE 19 22 10 12 1012.1 1012.0 0.4
08/03:30am 23.7 24.3 21.0 85 1.8 SSE 19 22 10 12 1012.1 1012.0 0.4
08/03:00am 23.8 24.3 21.1 85 1.8 SSE 20 24 11 13 1012.2 1012.1 0.4
08/02:30am 23.7 23.7 21.0 85 1.8 SSE 22 26 12 14 1012.0 1011.9 0.4
08/02:00am 24.0 24.6 21.1 84 1.9 SE 19 20 10 11 1012.3 1012.2 0.4
08/01:30am 24.0 23.8 21.3 85 1.8 SE 24 28 13 15 1012.3 1012.2 0.4
08/01:00am 23.4 23.9 20.9 86 1.6 SSE 19 20 10 11 1012.7 1012.6 0.4
08/12:30am 23.9 25.6 21.0 84 1.9 ESE 13 17 7 9 1013.1 1013.0 0.4
08/12:00am 23.8 25.5 20.9 84 1.9 SSE 13 17 7 9 1013.8 1013.7 0.4
 
Date/Time
EST
Temp
°C
App
Temp
°C
Dew
Point
°C
Rel
Hum
%
Delta-T
°C
Wind Press
QNH
hPa
Press
MSL
hPa
Rain since
9am
mm
Dir  Spd
km/h
Gust
km/h
Spd
kts
Gust
kts
07/11:30pm 23.6 25.2 20.7 84 1.9 SSE 13 15 7 8 1014.3 1014.2 0.4
07/11:00pm 23.8 24.6 21.3 86 1.6 SSE 19 26 10 14 1014.3 1014.2 0.4
07/10:30pm 23.9 25.1 21.4 86 1.6 ESE 17 22 9 12 1014.5 1014.4 0.4
07/10:00pm 23.9 22.2 21.4 86 1.6 SE 32 39 17 21 1014.2 1014.1 0.4
07/09:30pm 24.1 22.4 21.4 85 1.8 SSE 32 35 17 19 1014.2 1014.1 0.4
07/09:00pm 24.4 23.3 21.1 82 2.2 SSE 28 32 15 17 1014.0 1013.9 0.2
07/08:30pm 24.7 25.7 21.0 80 2.4 SE 17 19 9 10 1013.6 1013.5 0.2
07/08:00pm 24.5 25.9 21.0 81 2.3 ENE 15 19 8 10 1013.6 1013.5 0.2
07/07:30pm 24.6 25.5 20.9 80 2.4 ENE 17 19 9 10 1014.0 1013.9 0.2
07/07:00pm 25.1 26.6 20.6 76 2.9 ENE 13 17 7 9 1013.6 1013.5 0.2
07/06:30pm 25.1 25.9 20.6 76 2.9 NE 17 20 9 11 1013.1 1013.0 0.2
07/06:00pm 25.1 24.5 20.6 76 2.9 NE 24 28 13 15 1012.4 1012.3 0.2
07/05:30pm 25.2 25.4 20.5 75 3.1 NE 20 26 11 14 1012.2 1012.1 0.2
07/05:00pm 25.1 23.8 20.6 76 2.9 NE 28 33 15 18 1011.1 1011.0 0.2
07/04:30pm 25.6 23.4 20.4 73 3.4 NE 32 35 17 19 1010.5 1010.4 0.2
07/04:00pm 25.5 24.0 20.3 73 3.4 NE 28 32 15 17 1010.4 1010.3 0.2
07/03:30pm 26.3 25.5 20.8 71 3.6 NE 26 32 14 17 1010.4 1010.3 0.2
07/03:00pm 26.9 26.2 21.0 70 3.9 NE 26 30 14 16 1010.5 1010.4 0.2
07/02:30pm 27.2 27.6 21.0 69 4.1 NE 20 24 11 13 1010.8 1010.7 0.2
07/02:00pm 27.3 27.7 20.9 68 4.2 NNE 20 26 11 14 1010.8 1010.7 0.2
07/01:30pm 27.2 27.3 21.9 73 3.6 NNE 24 30 13 16 1010.8 1010.7 0.2
07/01:00pm 27.4 28.8 21.9 72 3.7 N 17 20 9 11 1011.0 1010.9 0.2
07/12:30pm 26.4 27.5 21.2 73 3.4 N 17 19 9 10 1011.2 1011.1 0.2
07/12:00pm 25.6 27.0 20.4 73 3.4 NNE 13 15 7 8 1011.5 1011.4 0.0
07/11:30am 24.9 27.4 20.2 75 3.1 NW 7 9 4 5 1012.3 1012.2 0.0
07/11:00am 24.4 26.6 20.3 78 2.7 NNW 9 11 5 6 1012.9 1012.8 0.0
07/10:30am 24.0 25.7 20.1 79 2.5 NNW 11 15 6 8 1012.9 1012.8 0.0
07/10:00am 23.9 25.7 20.4 81 2.3 NNW 11 17 6 9 1013.1 1013.0 0.0
07/09:30am 23.5 24.7 20.0 81 2.3 NNW 13 19 7 10 1013.4 1013.3 0.0
07/09:00am 23.0 24.1 19.6 81 2.2 N 13 15 7 8 1013.4 1013.3 8.6
07/08:30am 23.1 25.0 19.7 81 2.2 NW 9 13 5 7 1013.9 1013.8 8.6
07/08:00am 23.0 24.4 19.6 81 2.2 NNW 11 15 6 8 1013.8 1013.7 8.6
07/07:30am 22.3 24.4 19.3 83 1.9 NNW 7 11 4 6 1014.2 1014.1 8.6
07/07:00am 22.2 25.3 18.6 80 2.3 CALM 0 0 0 0 1014.8 1014.7 8.2
07/06:30am 21.7 23.3 18.3 81 2.1 SW 7 9 4 5 1014.8 1014.7 8.2
07/06:00am 21.6 22.9 18.4 82 2.0 SW 9 11 5 6 1014.7 1014.6 8.2
07/05:30am 22.0 23.3 18.4 80 2.3 NNW 9 13 5 7 1013.6 1013.5 8.2

Latest Capital City Observations: Canberra | Sydney | Melbourne | Brisbane | Adelaide | Perth | Hobart | Darwin

Other Formats:

Comma delimited format used in spreadsheet applications
http://www.bom.gov.au/fwo/IDQ60901/IDQ60901.95591.axf

JavaScript Object Notation format (JSON) in row-major order
http://www.bom.gov.au/fwo/IDQ60901/IDQ60901.95591.json